createdAt,value
2023-09-27T00:02:24.160Z,15.95
2023-09-27T00:04:52.317Z,15.92
2023-09-27T00:07:19.745Z,15.87
2023-09-27T00:09:46.777Z,15.86
2023-09-27T00:12:14.118Z,15.83
2023-09-27T00:14:41.069Z,15.78
2023-09-27T00:17:08.484Z,15.79
2023-09-27T00:19:35.711Z,15.75
2023-09-27T00:22:04.980Z,15.68
2023-09-27T00:24:32.001Z,15.64
2023-09-27T00:26:59.236Z,15.61
2023-09-27T00:29:26.802Z,15.57
2023-09-27T00:31:54.213Z,15.53
2023-09-27T00:34:21.239Z,15.49
2023-09-27T00:36:48.455Z,15.47
2023-09-27T00:39:15.533Z,15.44
2023-09-27T00:41:42.948Z,15.43
2023-09-27T00:44:10.068Z,15.39
2023-09-27T00:46:39.982Z,15.36
2023-09-27T00:49:09.507Z,15.30
2023-09-27T00:51:38.077Z,15.29
2023-09-27T00:54:08.102Z,15.24
2023-09-27T00:56:37.246Z,15.23
2023-09-27T00:59:06.500Z,15.19
2023-09-27T01:01:35.470Z,15.15
2023-09-27T01:04:04.119Z,15.11
2023-09-27T01:06:32.656Z,15.08
2023-09-27T01:09:02.023Z,15.04
2023-09-27T01:11:30.588Z,15.03
2023-09-27T01:13:58.016Z,15.00
2023-09-27T01:16:27.314Z,14.95
2023-09-27T01:18:54.515Z,14.91
2023-09-27T01:21:22.226Z,14.90
2023-09-27T01:23:51.520Z,14.85
2023-09-27T01:26:22.718Z,14.81
2023-09-27T01:28:50.160Z,14.78
2023-09-27T01:31:17.699Z,14.80
2023-09-27T01:33:44.896Z,14.75
2023-09-27T01:36:12.979Z,14.69
2023-09-27T01:38:40.194Z,14.67
2023-09-27T01:41:07.465Z,14.64
2023-09-27T01:43:34.458Z,14.66
2023-09-27T01:46:04.096Z,14.59
2023-09-27T01:48:31.250Z,14.55
2023-09-27T01:50:58.688Z,14.52
2023-09-27T01:53:26.904Z,14.51
2023-09-27T01:55:54.287Z,14.47
2023-09-27T01:58:21.413Z,14.43
2023-09-27T02:00:48.819Z,14.40
2023-09-27T02:03:15.868Z,14.39
2023-09-27T02:05:43.425Z,14.36
2023-09-27T02:08:12.957Z,14.33
2023-09-27T02:10:40.360Z,14.30
2023-09-27T02:13:07.327Z,14.27
2023-09-27T02:15:34.656Z,14.23
2023-09-27T02:18:04.302Z,14.23
2023-09-27T02:20:31.640Z,14.20
2023-09-27T02:22:59.676Z,14.17
2023-09-27T02:25:27.228Z,14.13
2023-09-27T02:27:54.299Z,14.13
2023-09-27T02:30:21.779Z,14.10
2023-09-27T02:32:49.040Z,14.07
2023-09-27T02:35:18.521Z,14.03
2023-09-27T02:37:45.645Z,14.00
2023-09-27T02:40:17.236Z,13.98
2023-09-27T02:42:48.173Z,13.96
2023-09-27T02:45:16.005Z,13.92
2023-09-27T02:47:48.066Z,13.93
2023-09-27T02:50:16.714Z,13.91
2023-09-27T02:52:46.520Z,13.87
2023-09-27T02:55:15.262Z,13.88
2023-09-27T02:57:43.854Z,13.84
2023-09-27T03:00:12.622Z,13.81
2023-09-27T03:02:39.907Z,13.77
2023-09-27T03:05:09.313Z,13.76
2023-09-27T03:07:39.183Z,13.73
2023-09-27T03:10:09.717Z,13.71
2023-09-27T03:12:36.929Z,13.68
2023-09-27T03:15:12.571Z,13.67
2023-09-27T03:17:43.741Z,13.62
2023-09-27T03:20:20.357Z,13.60
2023-09-27T03:22:48.905Z,13.57
2023-09-27T03:25:18.575Z,13.55
2023-09-27T03:27:46.730Z,13.51
2023-09-27T03:30:14.002Z,13.50
2023-09-27T03:32:42.099Z,13.48
2023-09-27T03:35:10.260Z,13.44
2023-09-27T03:37:37.668Z,13.43
2023-09-27T03:40:17.197Z,13.42
2023-09-27T03:42:46.980Z,13.22
2023-09-27T03:45:16.525Z,13.13
2023-09-27T03:47:47.454Z,13.22
2023-09-27T03:50:19.450Z,13.23
2023-09-27T03:52:46.687Z,13.27
2023-09-27T03:55:14.261Z,13.23
2023-09-27T03:57:42.372Z,13.21
2023-09-27T04:00:20.648Z,13.23
2023-09-27T04:02:49.416Z,13.21
2023-09-27T04:05:24.104Z,13.18
2023-09-27T04:07:51.188Z,13.20
2023-09-27T04:10:20.740Z,13.18
2023-09-27T04:12:48.690Z,13.16
2023-09-27T04:15:16.097Z,13.13
2023-09-27T04:17:43.287Z,13.14
2023-09-27T04:20:20.293Z,13.12
2023-09-27T04:22:49.944Z,13.09
2023-09-27T04:25:18.911Z,13.07
2023-09-27T04:27:51.301Z,13.03
2023-09-27T04:30:21.009Z,12.99
2023-09-27T04:32:55.032Z,12.98
2023-09-27T04:35:22.906Z,12.99
2023-09-27T04:37:50.743Z,13.00
2023-09-27T04:40:18.700Z,12.96
2023-09-27T04:42:47.234Z,12.94
2023-09-27T04:45:15.508Z,12.93
2023-09-27T04:47:45.858Z,12.90
2023-09-27T04:50:14.960Z,12.90
2023-09-27T04:52:43.072Z,12.90
2023-09-27T04:55:11.273Z,12.88
2023-09-27T04:57:38.415Z,12.87
2023-09-27T05:00:15.655Z,12.86
2023-09-27T05:02:43.215Z,12.89
2023-09-27T05:05:10.914Z,12.89
2023-09-27T05:07:38.709Z,12.91
2023-09-27T05:10:07.134Z,12.90
2023-09-27T05:12:34.358Z,12.93
2023-09-27T05:15:01.865Z,12.97
2023-09-27T05:17:29.036Z,13.02
2023-09-27T05:19:56.520Z,13.06
2023-09-27T05:22:23.708Z,13.11
2023-09-27T05:24:51.057Z,13.17
2023-09-27T05:27:18.844Z,13.23
2023-09-27T05:29:46.733Z,13.27
2023-09-27T05:32:13.834Z,13.34
2023-09-27T05:34:41.179Z,13.42
2023-09-27T05:37:08.405Z,13.52
2023-09-27T05:39:35.664Z,13.59
2023-09-27T05:42:02.736Z,13.65
2023-09-27T05:44:30.093Z,13.74
2023-09-27T05:46:57.345Z,13.84
2023-09-27T05:49:25.815Z,13.92
2023-09-27T05:51:53.684Z,14.05
2023-09-27T05:54:21.102Z,14.19
2023-09-27T05:56:52.738Z,14.31
2023-09-27T05:59:20.397Z,14.42
2023-09-27T06:01:48.494Z,14.55
2023-09-27T06:04:15.907Z,14.68
2023-09-27T06:06:43.007Z,14.81
2023-09-27T06:09:10.969Z,14.99
2023-09-27T06:11:38.355Z,15.15
2023-09-27T06:14:12.146Z,15.31
2023-09-27T06:16:40.484Z,15.45
2023-09-27T06:19:09.685Z,15.59
2023-09-27T06:21:36.971Z,15.83
2023-09-27T06:24:06.294Z,16.01
2023-09-27T06:26:33.615Z,16.16
2023-09-27T06:29:01.147Z,16.38
2023-09-27T06:31:30.214Z,16.56
2023-09-27T06:33:57.625Z,16.70
2023-09-27T06:36:24.754Z,16.85
2023-09-27T06:38:52.693Z,17.11
2023-09-27T06:41:20.013Z,17.27
2023-09-27T06:43:47.405Z,17.49
2023-09-27T06:46:17.915Z,17.63
2023-09-27T06:48:45.508Z,17.81
2023-09-27T06:51:14.816Z,18.02
2023-09-27T06:53:43.768Z,18.16
2023-09-27T06:56:10.953Z,18.28
2023-09-27T06:58:38.681Z,18.48
2023-09-27T07:01:05.838Z,18.72
2023-09-27T07:03:35.340Z,18.84
2023-09-27T07:06:04.343Z,19.09
2023-09-27T07:08:31.806Z,19.36
2023-09-27T07:11:10.368Z,19.55
2023-09-27T07:13:43.860Z,19.73
2023-09-27T07:16:28.131Z,19.92
2023-09-27T07:19:02.499Z,20.12
2023-09-27T07:21:31.515Z,20.46
2023-09-27T07:23:58.789Z,20.66
2023-09-27T07:26:25.950Z,20.82
2023-09-27T07:28:53.714Z,21.00
2023-09-27T07:31:21.215Z,21.16
2023-09-27T07:33:55.731Z,21.39
2023-09-27T07:36:26.013Z,21.57
2023-09-27T07:38:56.589Z,21.70
2023-09-27T07:41:23.636Z,21.87
2023-09-27T07:43:51.850Z,22.06
2023-09-27T07:46:20.524Z,22.12
2023-09-27T07:48:47.995Z,22.20
2023-09-27T07:51:21.163Z,22.36
2023-09-27T07:53:48.633Z,22.50
2023-09-27T07:56:24.575Z,22.57
2023-09-27T07:58:54.811Z,22.72
2023-09-27T08:01:23.832Z,22.89
2023-09-27T08:04:13.593Z,22.97
2023-09-27T08:06:41.149Z,23.21
2023-09-27T08:09:17.628Z,23.46
2023-09-27T08:11:51.984Z,23.56
2023-09-27T08:14:20.666Z,23.72
2023-09-27T08:16:48.097Z,23.97
2023-09-27T08:19:17.110Z,24.23
2023-09-27T08:21:44.561Z,24.26
2023-09-27T08:24:11.858Z,24.50
2023-09-27T08:26:38.942Z,24.68
2023-09-27T08:29:06.980Z,24.97
2023-09-27T08:31:37.259Z,25.20
2023-09-27T08:34:05.263Z,25.29
2023-09-27T08:36:32.508Z,25.36
2023-09-27T08:39:00.022Z,25.43
2023-09-27T08:41:29.298Z,25.59
2023-09-27T08:43:58.524Z,25.77
2023-09-27T08:46:26.524Z,25.82
2023-09-27T08:48:57.254Z,26.02
2023-09-27T08:51:26.569Z,26.07
2023-09-27T08:53:54.149Z,26.19
2023-09-27T08:56:23.162Z,26.25
2023-09-27T08:58:51.491Z,26.44
2023-09-27T09:01:19.550Z,26.61
2023-09-27T09:03:48.056Z,27.27
2023-09-27T09:06:16.864Z,28.61
2023-09-27T09:08:44.598Z,29.74
2023-09-27T09:11:17.866Z,30.49
2023-09-27T09:14:04.993Z,30.97
2023-09-27T09:16:41.409Z,31.23
2023-09-27T09:19:37.472Z,31.03
2023-09-27T09:22:12.855Z,31.19
2023-09-27T09:24:43.224Z,31.14
2023-09-27T09:27:17.287Z,30.92
2023-09-27T09:29:53.983Z,30.63
2023-09-27T09:32:29.498Z,29.71
2023-09-27T09:34:57.227Z,28.79
2023-09-27T09:37:30.758Z,27.87
2023-09-27T09:40:15.925Z,27.28
2023-09-27T09:42:44.532Z,27.04
2023-09-27T09:45:13.738Z,26.91
2023-09-27T09:47:45.576Z,26.99
2023-09-27T09:50:18.560Z,26.97
2023-09-27T09:58:43.752Z,27.42
2023-09-27T10:01:19.734Z,27.47
2023-09-27T10:03:51.479Z,27.50
2023-09-27T10:06:36.979Z,27.43
2023-09-27T10:09:16.081Z,27.53
2023-09-27T10:11:47.929Z,27.65
2023-09-27T10:14:19.408Z,27.91
2023-09-27T10:16:49.373Z,27.97
2023-09-27T10:19:30.753Z,28.01
2023-09-27T10:22:07.088Z,28.20
2023-09-27T10:24:37.166Z,28.43
2023-09-27T10:27:04.395Z,28.30
2023-09-27T10:29:31.885Z,28.50
2023-09-27T10:31:58.909Z,28.61
2023-09-27T10:34:29.083Z,28.63
2023-09-27T10:37:17.352Z,28.76
2023-09-27T10:40:22.790Z,29.19
2023-09-27T10:42:50.224Z,29.43
2023-09-27T10:45:18.425Z,29.58
2023-09-27T10:47:48.011Z,29.52
2023-09-27T10:50:17.847Z,29.64
2023-09-27T10:52:45.065Z,29.63
2023-09-27T10:55:14.506Z,29.75
2023-09-27T10:57:42.662Z,30.01
2023-09-27T11:00:13.755Z,30.03
2023-09-27T11:02:42.900Z,30.03
2023-09-27T11:05:10.897Z,30.10
2023-09-27T11:07:51.636Z,30.06
2023-09-27T11:10:31.732Z,30.32
2023-09-27T11:13:07.871Z,30.50
2023-09-27T11:15:35.231Z,30.60
2023-09-27T11:18:02.383Z,30.60
2023-09-27T11:20:34.287Z,30.42
2023-09-27T11:23:05.098Z,30.13
2023-09-27T11:25:37.714Z,29.58
2023-09-27T11:28:16.190Z,29.98
2023-09-27T11:30:44.014Z,30.22
2023-09-27T11:33:14.617Z,30.36
2023-09-27T11:35:50.393Z,30.16
2023-09-27T11:38:17.728Z,30.05
2023-09-27T11:40:49.744Z,30.07
2023-09-27T11:43:18.730Z,30.15
2023-09-27T11:45:49.232Z,30.25
2023-09-27T11:48:18.118Z,30.51
2023-09-27T11:50:45.682Z,30.59
2023-09-27T11:53:13.743Z,30.54
2023-09-27T11:55:42.394Z,30.44
2023-09-27T11:58:10.141Z,30.59
2023-09-27T12:00:37.492Z,30.51
2023-09-27T12:03:05.872Z,30.45
2023-09-27T12:05:38.680Z,30.33
2023-09-27T12:08:07.945Z,30.45
2023-09-27T12:10:35.495Z,30.42
2023-09-27T12:13:03.676Z,30.45
2023-09-27T12:15:30.982Z,30.42
2023-09-27T12:17:58.181Z,30.26
2023-09-27T12:22:59.552Z,29.97
2023-09-27T12:25:28.088Z,30.01
2023-09-27T12:27:55.256Z,30.23
2023-09-27T12:30:22.502Z,30.38
2023-09-27T12:32:49.789Z,30.37
2023-09-27T12:35:17.389Z,30.52
2023-09-27T12:37:44.564Z,30.73
2023-09-27T12:40:12.874Z,30.57
2023-09-27T12:42:41.047Z,30.62
2023-09-27T12:45:09.310Z,30.67
2023-09-27T12:47:37.388Z,30.53
2023-09-27T12:50:07.708Z,30.58
2023-09-27T12:52:35.598Z,30.75
2023-09-27T12:55:03.265Z,30.67
2023-09-27T12:57:30.410Z,30.59
2023-09-27T12:59:57.990Z,30.53
2023-09-27T13:02:25.886Z,30.45
2023-09-27T13:04:53.808Z,30.47
2023-09-27T13:07:20.906Z,30.54
2023-09-27T13:09:48.205Z,30.53
2023-09-27T13:12:15.604Z,30.47
2023-09-27T13:14:42.978Z,30.17
2023-09-27T13:17:11.140Z,30.22
2023-09-27T13:19:38.660Z,30.30
2023-09-27T13:22:05.999Z,30.52
2023-09-27T13:24:33.362Z,30.35
2023-09-27T13:27:10.527Z,30.17
2023-09-27T13:29:40.379Z,30.07
2023-09-27T13:32:07.672Z,30.15
2023-09-27T13:34:35.669Z,30.29
2023-09-27T13:37:03.155Z,30.21
2023-09-27T13:39:31.046Z,30.51
2023-09-27T13:41:58.317Z,30.70
2023-09-27T13:44:25.625Z,30.54
2023-09-27T13:46:53.065Z,30.50
2023-09-27T13:49:25.410Z,30.29
2023-09-27T13:51:52.510Z,30.16
2023-09-27T13:54:20.836Z,30.00
2023-09-27T13:56:48.415Z,29.91
2023-09-27T13:59:15.876Z,29.76
2023-09-27T14:01:43.009Z,29.51
2023-09-27T14:04:10.452Z,29.31
2023-09-27T14:06:37.549Z,29.15
2023-09-27T14:09:05.032Z,29.13
2023-09-27T14:11:32.250Z,29.09
2023-09-27T14:13:59.537Z,29.11
2023-09-27T14:16:26.756Z,28.68
2023-09-27T14:18:54.871Z,28.40
2023-09-27T14:21:22.574Z,28.40
2023-09-27T14:23:49.955Z,28.33
2023-09-27T14:26:20.296Z,28.29
2023-09-27T14:28:48.823Z,28.19
2023-09-27T14:31:19.095Z,28.10
2023-09-27T14:33:46.581Z,27.94
2023-09-27T14:36:13.692Z,27.92
2023-09-27T14:38:41.299Z,27.93
2023-09-27T14:41:11.235Z,27.55
2023-09-27T14:43:39.366Z,27.53
2023-09-27T14:46:14.121Z,27.54
2023-09-27T14:48:41.838Z,27.58
2023-09-27T14:51:13.076Z,27.34
2023-09-27T14:53:42.371Z,27.19
2023-09-27T14:56:11.010Z,27.19
2023-09-27T14:58:38.476Z,27.08
2023-09-27T15:01:05.996Z,27.13
2023-09-27T15:03:34.459Z,27.16
2023-09-27T15:06:03.339Z,27.05
2023-09-27T15:08:34.000Z,26.98
2023-09-27T15:11:02.043Z,26.85
2023-09-27T15:13:31.112Z,26.69
2023-09-27T15:16:02.574Z,26.75
2023-09-27T15:18:30.609Z,26.63
2023-09-27T15:20:57.650Z,26.52
2023-09-27T15:23:31.344Z,26.41
2023-09-27T15:25:59.730Z,26.43
2023-09-27T15:28:27.292Z,26.37
2023-09-27T15:30:54.537Z,26.38
2023-09-27T15:33:23.411Z,26.25
2023-09-27T15:36:03.685Z,26.21
2023-09-27T15:38:30.990Z,26.22
2023-09-27T15:40:58.001Z,26.20
2023-09-27T15:43:25.408Z,26.18
2023-09-27T15:46:01.459Z,26.15
2023-09-27T15:48:33.031Z,26.12
2023-09-27T15:51:05.503Z,26.09
2023-09-27T15:53:34.528Z,26.04
2023-09-27T15:56:05.026Z,26.00
2023-09-27T15:58:33.413Z,25.96
2023-09-27T16:01:02.639Z,25.92
2023-09-27T16:03:30.996Z,25.86
2023-09-27T16:05:59.875Z,25.83
2023-09-27T16:08:28.587Z,25.77
2023-09-27T16:10:56.942Z,25.73
2023-09-27T16:13:24.552Z,25.68
2023-09-27T16:15:53.400Z,25.63
2023-09-27T16:18:37.651Z,25.54
2023-09-27T16:21:05.226Z,25.47
2023-09-27T16:23:32.885Z,25.40
2023-09-27T16:26:00.819Z,25.31
2023-09-27T16:28:30.016Z,25.25
2023-09-27T16:30:58.532Z,25.19
2023-09-27T16:33:27.281Z,25.13
2023-09-27T16:35:54.537Z,25.05
2023-09-27T16:38:21.871Z,24.98
2023-09-27T16:40:49.034Z,24.92
2023-09-27T16:43:18.271Z,24.85
2023-09-27T16:45:45.579Z,24.77
2023-09-27T16:48:13.016Z,24.67
2023-09-27T16:50:40.975Z,24.60
2023-09-27T16:53:08.636Z,24.53
2023-09-27T16:55:36.505Z,24.43
2023-09-27T16:58:06.819Z,24.35
2023-09-27T17:00:34.141Z,24.28
2023-09-27T17:03:01.693Z,24.22
2023-09-27T17:05:28.940Z,24.15
2023-09-27T17:07:56.251Z,24.06
2023-09-27T17:10:23.588Z,23.97
2023-09-27T17:12:50.959Z,23.88
2023-09-27T17:15:20.675Z,23.80
2023-09-27T17:17:48.053Z,23.71
2023-09-27T17:20:15.204Z,23.64
2023-09-27T17:22:42.630Z,23.58
2023-09-27T17:25:11.037Z,23.52
2023-09-27T17:27:38.842Z,23.45
2023-09-27T17:30:08.494Z,23.40
2023-09-27T17:32:36.836Z,23.32
2023-09-27T17:35:05.969Z,23.23
2023-09-27T17:37:33.642Z,23.13
2023-09-27T17:40:04.660Z,23.04
2023-09-27T17:42:32.116Z,22.96
2023-09-27T17:44:59.140Z,22.89
2023-09-27T17:47:26.697Z,22.81
2023-09-27T17:49:53.911Z,22.71
2023-09-27T17:52:22.015Z,22.69
2023-09-27T17:54:49.582Z,22.67
2023-09-27T17:57:18.507Z,22.62
2023-09-27T17:59:46.609Z,22.58
2023-09-27T18:02:13.996Z,22.51
2023-09-27T18:04:41.244Z,22.45
2023-09-27T18:07:08.735Z,22.38
2023-09-27T18:09:37.111Z,22.34
2023-09-27T18:12:05.337Z,22.27
2023-09-27T18:14:32.374Z,22.21
2023-09-27T18:17:00.552Z,22.14
2023-09-27T18:19:29.306Z,22.05
2023-09-27T18:21:57.497Z,21.98
2023-09-27T18:24:25.867Z,21.92
2023-09-27T18:26:53.277Z,21.89
2023-09-27T18:29:20.487Z,21.81
2023-09-27T18:31:48.239Z,21.75
2023-09-27T18:34:15.390Z,21.72
2023-09-27T18:36:42.969Z,21.66
2023-09-27T18:39:10.185Z,21.60
2023-09-27T18:41:37.904Z,21.52
2023-09-27T18:44:05.646Z,21.46
2023-09-27T18:46:35.004Z,21.43
2023-09-27T18:49:04.259Z,21.35
2023-09-27T18:51:31.933Z,21.32
2023-09-27T18:53:59.386Z,21.28
2023-09-27T18:56:27.125Z,21.22
2023-09-27T18:58:59.784Z,21.16
2023-09-27T19:01:28.069Z,21.12
2023-09-27T19:03:59.388Z,21.05
2023-09-27T19:06:27.641Z,21.02
2023-09-27T19:08:55.518Z,20.97
2023-09-27T19:11:23.149Z,20.91
2023-09-27T19:13:50.464Z,20.83
2023-09-27T19:16:17.993Z,20.76
2023-09-27T19:18:45.076Z,20.71
2023-09-27T19:21:12.611Z,20.66
2023-09-27T19:23:40.892Z,20.61
2023-09-27T19:26:08.695Z,20.57
2023-09-27T19:28:37.413Z,20.52
2023-09-27T19:31:08.472Z,20.48
2023-09-27T19:33:42.581Z,20.44
2023-09-27T19:36:20.976Z,20.38
2023-09-27T19:38:49.175Z,20.34
2023-09-27T19:41:16.979Z,20.31
2023-09-27T19:43:44.393Z,20.24
2023-09-27T19:46:12.619Z,20.17
2023-09-27T19:48:44.924Z,20.15
2023-09-27T19:51:23.731Z,20.09
2023-09-27T19:53:53.065Z,20.06
2023-09-27T19:56:22.503Z,20.00
2023-09-27T19:58:50.248Z,19.95
2023-09-27T20:01:37.947Z,19.91
2023-09-27T20:04:06.161Z,19.88
2023-09-27T20:06:40.975Z,19.82
2023-09-27T20:09:11.061Z,19.77
2023-09-27T20:11:38.971Z,19.71
2023-09-27T20:14:06.728Z,19.67
2023-09-27T20:16:34.324Z,19.64
2023-09-27T20:19:05.337Z,19.61
2023-09-27T20:21:35.984Z,19.53
2023-09-27T20:24:04.187Z,19.48
2023-09-27T20:26:31.498Z,19.42
2023-09-27T20:28:58.747Z,19.37
2023-09-27T20:31:26.161Z,19.31
2023-09-27T20:33:53.731Z,19.26
2023-09-27T20:36:21.349Z,19.21
2023-09-27T20:38:48.565Z,19.17
2023-09-27T20:41:21.637Z,19.13
2023-09-27T20:43:49.186Z,19.08
2023-09-27T20:46:17.399Z,19.02
2023-09-27T20:48:44.908Z,18.98
2023-09-27T20:51:15.289Z,18.97
2023-09-27T20:53:42.429Z,18.92
2023-09-27T20:56:10.660Z,18.84
2023-09-27T20:58:41.623Z,18.80
2023-09-27T21:01:29.216Z,18.74
2023-09-27T21:03:57.423Z,18.71
2023-09-27T21:06:29.616Z,18.64
2023-09-27T21:09:04.400Z,18.60
2023-09-27T21:11:32.502Z,18.56
2023-09-27T21:14:02.783Z,18.50
2023-09-27T21:16:34.194Z,18.45
2023-09-27T21:19:02.215Z,18.40
2023-09-27T21:21:31.135Z,18.37
2023-09-27T21:23:58.409Z,18.33
2023-09-27T21:26:26.098Z,18.26
2023-09-27T21:28:53.220Z,18.22
2023-09-27T21:31:21.261Z,18.19
2023-09-27T21:33:48.658Z,18.16
2023-09-27T21:36:18.191Z,18.11
2023-09-27T21:38:45.513Z,18.08
2023-09-27T21:41:12.945Z,18.01
2023-09-27T21:43:40.355Z,17.99
2023-09-27T21:46:20.807Z,17.98
2023-09-27T21:48:51.648Z,17.86
2023-09-27T21:51:19.343Z,17.83
2023-09-27T21:53:46.812Z,17.81
2023-09-27T21:56:14.818Z,17.80
2023-09-27T21:58:43.293Z,17.75
2023-09-27T22:01:15.088Z,17.70
2023-09-27T22:03:43.126Z,17.64
2023-09-27T22:06:11.469Z,17.59
2023-09-27T22:08:38.741Z,17.54
2023-09-27T22:11:06.046Z,17.50
2023-09-27T22:13:39.129Z,17.47
2023-09-27T22:16:11.343Z,17.41
2023-09-27T22:18:49.232Z,17.37
2023-09-27T22:21:32.185Z,17.35
2023-09-27T22:24:09.831Z,17.27
2023-09-27T22:26:38.860Z,17.23
2023-09-27T22:29:09.966Z,17.18
2023-09-27T22:31:39.487Z,17.15
2023-09-27T22:34:23.650Z,17.12
2023-09-27T22:36:54.354Z,17.06
2023-09-27T22:39:22.829Z,16.99
2023-09-27T22:41:53.328Z,16.96
2023-09-27T22:44:21.930Z,16.90
2023-09-27T22:46:54.849Z,16.87
2023-09-27T22:49:24.438Z,16.83
2023-09-27T22:51:52.487Z,16.79
2023-09-27T22:54:22.879Z,16.76
2023-09-27T22:56:53.445Z,16.72
2023-09-27T22:59:22.378Z,16.68
2023-09-27T23:01:52.172Z,16.64
2023-09-27T23:04:23.944Z,16.59
2023-09-27T23:07:03.796Z,16.54
2023-09-27T23:09:38.219Z,16.52
2023-09-27T23:12:20.315Z,16.50
2023-09-27T23:15:07.171Z,16.47
2023-09-27T23:17:56.604Z,16.41
2023-09-27T23:20:29.963Z,16.34
2023-09-27T23:22:58.530Z,16.28
2023-09-27T23:25:41.329Z,16.24
2023-09-27T23:28:08.575Z,16.21
2023-09-27T23:30:35.877Z,16.16
2023-09-27T23:33:04.531Z,16.09
2023-09-27T23:35:32.299Z,16.06
2023-09-27T23:38:10.817Z,16.02
2023-09-27T23:40:42.481Z,15.96
2023-09-27T23:43:10.377Z,15.78
2023-09-27T23:45:38.863Z,15.80
2023-09-27T23:48:12.228Z,15.82
2023-09-27T23:50:41.709Z,15.79
2023-09-27T23:53:11.097Z,15.66
2023-09-27T23:55:42.192Z,15.64
2023-09-27T23:58:13.935Z,15.70
